Time;durP1;ratioP1;P1;durP2;ratioP2;P2;SDS_P1;SDS_P2;PMS_P1;PMS_P2;Temp;Humidity;BMP_temperature;BMP_pressure;BME280_temperature;BME280_humidity;BME280_pressure;Samples;Min_cycle;Max_cycle;Signal;HPM_P1;HPM_P2
2024/01/31 00:00:09;;;;;;;59.95;42.35;;;6.10;85.80;;;;;;5040594;28;20224;-78
2024/01/31 00:02:38;;;;;;;57.63;37.78;;;6.20;85.90;;;;;;5043620;28;20613;-77
2024/01/31 00:05:06;;;;;;;68.32;41.75;;;6.20;85.90;;;;;;5045596;28;20207;-77
2024/01/31 00:07:34;;;;;;;85.15;42.67;;;6.20;85.90;;;;;;5051513;28;20220;-77
2024/01/31 00:10:08;;;;;;;73.80;40.20;;;6.20;85.90;;;;;;5049672;28;20211;-79
2024/01/31 00:12:36;;;;;;;76.80;40.03;;;6.30;86.10;;;;;;5057638;28;20613;-81
2024/01/31 00:15:06;;;;;;;80.55;46.20;;;6.30;86.00;;;;;;5055896;28;20228;-82
2024/01/31 00:17:34;;;;;;;68.95;41.47;;;6.30;86.10;;;;;;5062539;28;20227;-82
2024/01/31 00:20:02;;;;;;;63.13;37.47;;;6.30;86.10;;;;;;5056438;28;20224;-82
2024/01/31 00:22:31;;;;;;;60.00;35.25;;;6.30;86.20;;;;;;5054325;28;20200;-78
2024/01/31 00:25:00;;;;;;;52.05;33.17;;;6.30;86.20;;;;;;5046625;28;20200;-79
2024/01/31 00:27:28;;;;;;;59.72;36.08;;;6.40;86.20;;;;;;5051879;28;20196;-79
2024/01/31 00:29:56;;;;;;;60.92;36.80;;;6.40;86.20;;;;;;5051909;28;20196;-80
2024/01/31 00:32:25;;;;;;;57.95;33.88;;;6.40;86.20;;;;;;5062830;28;20320;-81
2024/01/31 00:34:53;;;;;;;49.67;33.15;;;6.40;86.40;;;;;;5061983;28;20222;-81
2024/01/31 00:37:21;;;;;;;57.28;33.75;;;6.40;86.40;;;;;;5056460;28;20215;-77
2024/01/31 00:39:49;;;;;;;53.53;31.23;;;6.50;86.40;;;;;;5046867;28;20278;-77
2024/01/31 00:42:17;;;;;;;64.63;32.00;;;6.50;86.40;;;;;;5046059;28;20204;-78
2024/01/31 00:44:45;;;;;;;41.15;27.05;;;6.50;86.40;;;;;;5048895;28;20262;-80
2024/01/31 00:47:14;;;;;;;41.50;26.10;;;6.50;86.60;;;;;;5057455;28;20197;-80
2024/01/31 00:49:43;;;;;;;45.88;27.08;;;6.60;86.70;;;;;;5075353;28;20621;-80
2024/01/31 00:52:11;;;;;;;40.17;25.93;;;6.60;86.70;;;;;;5058266;28;20211;-80
2024/01/31 00:54:40;;;;;;;40.83;27.80;;;6.70;86.70;;;;;;5059778;28;20447;-80
2024/01/31 00:57:08;;;;;;;47.40;28.87;;;6.70;86.80;;;;;;5054613;28;20204;-78
2024/01/31 00:59:36;;;;;;;45.03;26.75;;;6.80;86.70;;;;;;5043868;28;21180;-77
2024/01/31 01:02:05;;;;;;;36.93;26.40;;;6.80;86.80;;;;;;5045184;28;20244;-77
2024/01/31 01:04:34;;;;;;;45.33;27.90;;;6.80;86.90;;;;;;5050945;28;20449;-78
2024/01/31 01:07:04;;;;;;;53.00;33.00;;;6.90;87.00;;;;;;5059429;28;20483;-77
2024/01/31 01:09:32;;;;;;;51.20;30.87;;;6.90;87.00;;;;;;5049525;28;20494;-77
2024/01/31 01:12:00;;;;;;;48.37;31.03;;;6.90;87.00;;;;;;5041782;28;20478;-77
2024/01/31 01:14:28;;;;;;;52.43;31.67;;;6.90;87.00;;;;;;5058838;28;20513;-77
2024/01/31 01:16:56;;;;;;;48.65;31.15;;;7.00;87.00;;;;;;5047830;28;20455;-77
2024/01/31 01:19:24;;;;;;;47.03;30.05;;;7.00;87.00;;;;;;5051378;28;20218;-78
2024/01/31 01:21:52;;;;;;;50.38;32.53;;;7.00;87.10;;;;;;5045590;28;20220;-78
2024/01/31 01:24:22;;;;;;;47.50;29.03;;;7.00;87.10;;;;;;5050597;28;20205;-80
2024/01/31 01:26:50;;;;;;;44.65;27.30;;;7.00;87.20;;;;;;5070735;28;20472;-78
2024/01/31 01:29:18;;;;;;;48.20;29.27;;;7.00;87.30;;;;;;5050116;28;20210;-81
2024/01/31 01:31:46;;;;;;;45.77;29.00;;;7.10;87.40;;;;;;5061956;28;20535;-78
2024/01/31 01:34:14;;;;;;;46.60;28.85;;;7.10;87.30;;;;;;5053105;28;20454;-77
2024/01/31 01:36:44;;;;;;;43.00;29.20;;;7.10;87.30;;;;;;5048863;28;20306;-79
2024/01/31 01:39:12;;;;;;;42.67;27.37;;;7.10;87.30;;;;;;5050257;28;20443;-79
2024/01/31 01:41:41;;;;;;;50.50;33.77;;;7.20;87.30;;;;;;5060858;28;21307;-79
2024/01/31 01:44:14;;;;;;;54.25;31.83;;;7.20;87.40;;;;;;5045041;28;20463;-79
2024/01/31 01:46:45;;;;;;;54.10;31.10;;;7.20;87.40;;;;;;5046104;28;20230;-79
2024/01/31 01:49:14;;;;;;;42.70;28.37;;;7.20;87.40;;;;;;5051828;28;20780;-78
2024/01/31 01:51:44;;;;;;;48.00;29.50;;;7.20;87.30;;;;;;5064612;28;20472;-78
2024/01/31 01:54:15;;;;;;;42.67;30.17;;;7.20;87.40;;;;;;5045015;28;20197;-78
2024/01/31 01:56:47;;;;;;;42.63;29.03;;;7.20;87.30;;;;;;5068478;28;20986;-78
2024/01/31 01:59:16;;;;;;;40.50;28.73;;;7.30;87.40;;;;;;5048029;28;20479;-78
2024/01/31 02:01:45;;;;;;;43.43;30.03;;;7.30;87.40;;;;;;5048541;28;20237;-78
2024/01/31 02:04:14;;;;;;;45.23;29.37;;;7.30;87.50;;;;;;5059897;28;20466;-80
2024/01/31 02:06:42;;;;;;;43.20;30.03;;;7.30;87.50;;;;;;5058820;28;20521;-80
2024/01/31 02:09:11;;;;;;;52.23;30.87;;;7.40;87.40;;;;;;5064972;28;20937;-80
2024/01/31 02:11:40;;;;;;;40.77;28.17;;;7.40;87.40;;;;;;5062119;28;20535;-80
2024/01/31 02:14:11;;;;;;;45.37;30.30;;;7.40;87.40;;;;;;5061327;28;20450;-80
2024/01/31 02:16:39;;;;;;;36.43;27.33;;;7.30;87.40;;;;;;5073808;28;20540;-79
2024/01/31 02:19:07;;;;;;;43.90;27.53;;;7.30;87.40;;;;;;5054945;28;20481;-80
2024/01/31 02:21:38;;;;;;;50.97;29.00;;;7.30;87.30;;;;;;5052275;28;20475;-80
2024/01/31 02:24:07;;;;;;;38.03;25.93;;;7.30;87.30;;;;;;5044145;28;20789;-80
2024/01/31 02:26:35;;;;;;;47.47;28.47;;;7.30;87.30;;;;;;5047581;28;20455;-79
2024/01/31 02:29:03;;;;;;;46.57;28.23;;;7.30;87.30;;;;;;5050281;28;20450;-79
2024/01/31 02:31:31;;;;;;;43.07;26.07;;;7.30;87.40;;;;;;5055764;28;20516;-79
2024/01/31 02:34:00;;;;;;;42.58;27.17;;;7.30;87.30;;;;;;5054355;28;20554;-77
2024/01/31 02:36:28;;;;;;;43.97;28.50;;;7.30;87.40;;;;;;5040885;28;20216;-79
2024/01/31 02:38:56;;;;;;;45.20;28.27;;;7.20;87.40;;;;;;5055352;28;20483;-82
2024/01/31 02:41:29;;;;;;;47.15;30.35;;;7.20;87.40;;;;;;5047844;28;20476;-80
2024/01/31 02:43:58;;;;;;;43.70;27.27;;;7.20;87.50;;;;;;5073289;28;20192;-81
2024/01/31 02:46:26;;;;;;;51.90;32.10;;;7.20;87.40;;;;;;5055337;28;20595;-81
2024/01/31 02:48:54;;;;;;;52.43;32.30;;;7.20;87.50;;;;;;5070986;28;20452;-82
2024/01/31 02:51:24;;;;;;;46.30;29.37;;;7.20;87.50;;;;;;5056210;28;20447;-80
2024/01/31 02:53:53;;;;;;;56.30;33.20;;;7.20;87.60;;;;;;5054391;28;20545;-82
2024/01/31 02:56:21;;;;;;;61.80;37.58;;;7.20;87.60;;;;;;5062546;28;20442;-81
2024/01/31 02:58:50;;;;;;;58.03;35.63;;;7.20;87.70;;;;;;5055726;28;20211;-81
2024/01/31 03:01:18;;;;;;;52.00;34.17;;;7.20;87.90;;;;;;5045074;28;20557;-77
2024/01/31 03:03:46;;;;;;;48.50;31.65;;;7.20;87.90;;;;;;5047792;28;20545;-77
2024/01/31 03:06:16;;;;;;;64.17;33.37;;;7.20;87.80;;;;;;5041572;28;20531;-78
2024/01/31 03:08:44;;;;;;;56.30;32.40;;;7.20;87.80;;;;;;5056505;28;20450;-78
2024/01/31 03:11:12;;;;;;;65.90;34.37;;;7.20;87.80;;;;;;5042715;28;20451;-78
2024/01/31 03:13:40;;;;;;;49.37;30.33;;;7.20;87.80;;;;;;5063251;28;20459;-79
2024/01/31 03:16:10;;;;;;;57.10;31.20;;;7.20;87.90;;;;;;5061445;28;20455;-78
2024/01/31 03:18:37;;;;;;;49.37;29.90;;;7.20;87.80;;;;;;5050611;28;20459;-78
2024/01/31 03:21:07;;;;;;;51.85;31.55;;;7.20;87.80;;;;;;5046316;28;20474;-78
2024/01/31 03:23:40;;;;;;;60.80;32.07;;;7.30;87.90;;;;;;5063097;28;20220;-79
2024/01/31 03:26:07;;;;;;;45.70;24.57;;;7.20;87.90;;;;;;5039530;28;20461;-78
2024/01/31 03:28:35;;;;;;;41.70;22.75;;;7.20;88.00;;;;;;5049637;28;20460;-79
2024/01/31 03:31:04;;;;;;;38.83;23.67;;;7.20;88.00;;;;;;5045463;28;20281;-79
2024/01/31 03:33:33;;;;;;;36.67;23.27;;;7.20;88.00;;;;;;5045996;28;20455;-78
2024/01/31 03:36:02;;;;;;;41.60;23.45;;;7.20;88.10;;;;;;5042554;28;20456;-78
2024/01/31 03:38:30;;;;;;;44.27;24.40;;;7.20;88.10;;;;;;5045739;28;20205;-78
2024/01/31 03:40:58;;;;;;;40.60;22.97;;;7.20;88.20;;;;;;5065193;28;20451;-78
2024/01/31 03:43:26;;;;;;;37.83;22.50;;;7.20;88.10;;;;;;5062215;28;20748;-78
2024/01/31 03:45:56;;;;;;;42.67;21.87;;;7.20;88.10;;;;;;5047805;28;20488;-79
2024/01/31 03:48:24;;;;;;;34.58;19.73;;;7.20;88.10;;;;;;5049450;28;20473;-79
2024/01/31 03:50:53;;;;;;;36.47;21.20;;;7.20;88.10;;;;;;5051114;28;20535;-79
2024/01/31 03:53:27;;;;;;;39.17;20.30;;;7.20;88.10;;;;;;5050442;28;20462;-79
2024/01/31 03:55:56;;;;;;;40.50;20.97;;;7.20;88.10;;;;;;5046714;28;20208;-79
2024/01/31 03:58:24;;;;;;;36.63;20.98;;;7.20;88.10;;;;;;5051465;28;20455;-79
2024/01/31 04:00:52;;;;;;;34.97;19.90;;;7.20;88.10;;;;;;5056174;28;20234;-79
2024/01/31 04:03:21;;;;;;;34.42;21.55;;;7.20;88.10;;;;;;5065529;28;20532;-80
2024/01/31 04:05:49;;;;;;;37.43;20.73;;;7.20;88.10;;;;;;5057714;28;20209;-80
2024/01/31 04:08:19;;;;;;;47.90;22.60;;;7.20;88.10;;;;;;5059102;28;20638;-79
2024/01/31 04:10:46;;;;;;;40.27;21.80;;;7.20;88.00;;;;;;5051538;28;20942;-78
2024/01/31 04:13:15;;;;;;;36.90;21.33;;;7.20;88.00;;;;;;5066744;28;20950;-79
2024/01/31 04:15:43;;;;;;;40.42;22.25;;;7.10;88.10;;;;;;5051680;28;20455;-79
2024/01/31 04:18:12;;;;;;;38.23;20.63;;;7.10;88.20;;;;;;5049360;28;20219;-78
2024/01/31 04:20:41;;;;;;;36.13;19.75;;;7.10;88.20;;;;;;5051909;28;20463;-80
2024/01/31 04:23:09;;;;;;;37.58;20.25;;;7.20;88.10;;;;;;5055889;28;20644;-79
2024/01/31 04:25:38;;;;;;;35.73;19.03;;;7.10;88.20;;;;;;5056914;28;20275;-80
2024/01/31 04:28:07;;;;;;;35.38;19.45;;;7.10;88.20;;;;;;5056564;28;20454;-80
2024/01/31 04:30:35;;;;;;;33.70;18.57;;;7.10;88.20;;;;;;5056685;28;20231;-80
2024/01/31 04:33:03;;;;;;;43.35;21.20;;;7.10;88.20;;;;;;5073712;28;20964;-80
2024/01/31 04:35:32;;;;;;;33.10;17.80;;;7.10;88.10;;;;;;5073631;28;20200;-80
2024/01/31 04:38:00;;;;;;;30.45;18.42;;;7.10;88.10;;;;;;5050275;28;20487;-79
2024/01/31 04:40:28;;;;;;;34.60;19.33;;;7.10;88.10;;;;;;5051922;28;20219;-78
2024/01/31 04:42:57;;;;;;;32.57;19.30;;;7.10;88.10;;;;;;5049965;28;20597;-78
2024/01/31 04:45:25;;;;;;;30.95;19.33;;;7.10;88.00;;;;;;5048578;28;21145;-78
2024/01/31 04:47:53;;;;;;;38.78;22.75;;;7.00;88.00;;;;;;5067393;28;20290;-78
2024/01/31 04:50:21;;;;;;;36.70;21.95;;;7.00;88.00;;;;;;5070632;28;20207;-78
2024/01/31 04:52:49;;;;;;;114.53;28.48;;;7.00;88.00;;;;;;5049301;28;20255;-78
2024/01/31 04:55:17;;;;;;;37.10;23.63;;;7.00;87.90;;;;;;5050216;28;20192;-78
2024/01/31 04:57:46;;;;;;;36.30;24.10;;;7.00;87.90;;;;;;5066143;28;20634;-78
2024/01/31 05:00:17;;;;;;;42.33;26.45;;;7.00;87.90;;;;;;5063224;28;20443;-77
2024/01/31 05:02:45;;;;;;;30.98;20.88;;;6.90;87.90;;;;;;5064688;28;20334;-78
2024/01/31 05:05:13;;;;;;;57.20;29.20;;;6.90;87.90;;;;;;5051073;28;20199;-79
2024/01/31 05:07:41;;;;;;;48.20;29.07;;;6.90;87.90;;;;;;5050150;28;20761;-78
2024/01/31 05:10:10;;;;;;;42.90;25.70;;;6.90;87.90;;;;;;5063103;28;20816;-78
2024/01/31 05:12:38;;;;;;;38.30;24.38;;;6.90;88.00;;;;;;5047056;28;20486;-78
2024/01/31 05:15:07;;;;;;;34.80;24.20;;;6.90;88.00;;;;;;5051133;28;20211;-78
2024/01/31 05:17:36;;;;;;;35.28;21.33;;;6.90;88.00;;;;;;5043038;28;20455;-78
2024/01/31 05:20:07;;;;;;;30.73;20.27;;;6.90;88.00;;;;;;5043864;28;20251;-78
2024/01/31 05:22:35;;;;;;;34.28;19.15;;;6.90;88.00;;;;;;5048582;28;20471;-78
2024/01/31 05:25:03;;;;;;;30.65;17.00;;;6.90;88.00;;;;;;5044747;28;20193;-79
2024/01/31 05:27:31;;;;;;;26.30;16.67;;;6.90;88.00;;;;;;5063151;28;20209;-78
2024/01/31 05:29:59;;;;;;;31.35;18.00;;;6.90;87.90;;;;;;5049162;28;20219;-78
2024/01/31 05:32:27;;;;;;;36.95;17.95;;;6.80;87.90;;;;;;5066867;28;20282;-78
2024/01/31 05:34:57;;;;;;;38.53;21.35;;;6.80;87.90;;;;;;5049337;28;20197;-78
2024/01/31 05:37:25;;;;;;;34.17;19.10;;;6.80;87.90;;;;;;5049008;28;20211;-78
2024/01/31 05:39:54;;;;;;;37.33;18.83;;;6.80;88.00;;;;;;5054712;28;20210;-79
2024/01/31 05:42:22;;;;;;;29.52;17.40;;;6.80;88.00;;;;;;5048630;28;20216;-78
2024/01/31 05:44:53;;;;;;;30.17;19.05;;;6.80;88.00;;;;;;5049906;28;20216;-77
2024/01/31 05:47:21;;;;;;;29.27;17.95;;;6.80;88.00;;;;;;5052612;28;20211;-78
2024/01/31 05:49:49;;;;;;;46.05;22.23;;;6.80;88.00;;;;;;5062180;28;20716;-77
2024/01/31 05:52:18;;;;;;;63.50;22.10;;;6.80;88.00;;;;;;5051700;28;20304;-77
2024/01/31 05:54:46;;;;;;;41.47;24.85;;;6.80;88.00;;;;;;5043476;28;20279;-76
2024/01/31 05:57:14;;;;;;;35.03;20.58;;;6.80;88.00;;;;;;5045509;28;20204;-77
2024/01/31 05:59:42;;;;;;;39.63;22.23;;;6.80;88.00;;;;;;5048524;28;20308;-76
2024/01/31 06:02:10;;;;;;;39.67;22.30;;;6.80;88.10;;;;;;5063617;28;20669;-77
2024/01/31 06:04:40;;;;;;;45.10;24.33;;;6.70;88.00;;;;;;5046079;28;20208;-77
2024/01/31 06:07:09;;;;;;;56.33;27.33;;;6.80;87.90;;;;;;5045183;28;20196;-77
2024/01/31 06:09:39;;;;;;;51.92;27.00;;;6.70;87.90;;;;;;5058923;28;20545;-76
2024/01/31 06:12:08;;;;;;;39.92;23.13;;;6.70;87.90;;;;;;5047754;28;20236;-77
2024/01/31 06:14:36;;;;;;;38.90;25.67;;;6.70;87.90;;;;;;5063011;28;20630;-77
2024/01/31 06:17:05;;;;;;;49.78;30.90;;;6.60;88.00;;;;;;5043016;28;20214;-77
2024/01/31 06:19:33;;;;;;;39.25;25.38;;;6.70;88.10;;;;;;5041535;28;20197;-76
2024/01/31 06:22:01;;;;;;;55.30;32.55;;;6.70;88.10;;;;;;5045573;28;20236;-77
2024/01/31 06:24:29;;;;;;;87.80;40.47;;;6.70;88.10;;;;;;5060813;28;20220;-76
2024/01/31 06:26:59;;;;;;;93.43;44.90;;;6.60;87.90;;;;;;5046412;28;20211;-76
2024/01/31 06:29:27;;;;;;;81.30;38.35;;;6.60;87.70;;;;;;5046061;28;20204;-77
2024/01/31 06:31:59;;;;;;;88.28;39.08;;;6.50;87.90;;;;;;5044451;28;20234;-76
2024/01/31 06:34:27;;;;;;;150.45;60.15;;;6.50;87.90;;;;;;5045064;28;20241;-76
2024/01/31 06:36:56;;;;;;;188.02;62.45;;;6.50;87.90;;;;;;5057851;28;20228;-77
2024/01/31 06:39:26;;;;;;;138.30;47.22;;;6.40;87.90;;;;;;5042186;28;20208;-76
2024/01/31 06:41:54;;;;;;;157.25;50.75;;;6.40;88.00;;;;;;5041730;28;20236;-76
2024/01/31 06:44:24;;;;;;;83.63;47.72;;;6.40;88.00;;;;;;5048179;28;20220;-76
2024/01/31 06:46:52;;;;;;;494.20;277.50;;;6.40;88.10;;;;;;5045156;28;20286;-77
2024/01/31 06:49:20;;;;;;;410.77;214.68;;;6.30;88.10;;;;;;5058965;28;20212;-76
2024/01/31 06:51:48;;;;;;;272.75;85.50;;;6.30;88.10;;;;;;5041501;28;20511;-76
2024/01/31 06:54:16;;;;;;;301.02;87.88;;;6.40;88.20;;;;;;5041998;28;20200;-76
2024/01/31 06:56:44;;;;;;;291.15;79.38;;;6.30;88.00;;;;;;5041201;28;20209;-76
2024/01/31 06:59:13;;;;;;;204.30;49.40;;;6.30;87.90;;;;;;5042112;28;20677;-77
2024/01/31 07:01:43;;;;;;;116.95;43.88;;;6.20;87.80;;;;;;5045170;28;20235;-77
2024/01/31 07:04:12;;;;;;;80.38;35.40;;;6.20;87.70;;;;;;5042218;28;20212;-77
2024/01/31 07:06:40;;;;;;;63.63;32.25;;;6.10;87.90;;;;;;5043973;28;20288;-77
2024/01/31 07:09:08;;;;;;;251.82;136.27;;;6.10;88.00;;;;;;5042093;28;20692;-77
2024/01/31 07:11:36;;;;;;;312.45;188.18;;;6.10;88.10;;;;;;5044249;28;20208;-77
2024/01/31 07:14:04;;;;;;;313.30;185.77;;;6.10;88.00;;;;;;5059337;28;20203;-77
2024/01/31 07:16:32;;;;;;;228.20;133.20;;;6.10;88.00;;;;;;5057848;28;20610;-77
2024/01/31 07:19:01;;;;;;;142.32;87.15;;;6.10;88.00;;;;;;5045872;28;20677;-77
2024/01/31 07:21:30;;;;;;;96.68;44.45;;;6.10;88.00;;;;;;5061179;28;20200;-77
2024/01/31 07:23:58;;;;;;;155.75;40.95;;;6.10;87.90;;;;;;5060759;28;20229;-77
2024/01/31 07:26:37;;;;;;;105.07;39.83;;;6.10;87.80;;;;;;5044986;28;20200;-77
2024/01/31 07:29:08;;;;;;;100.70;44.20;;;6.00;87.70;;;;;;5057000;28;20565;-77
2024/01/31 07:31:36;;;;;;;118.07;46.63;;;6.00;87.70;;;;;;5045917;28;20283;-77
2024/01/31 07:34:05;;;;;;;113.32;42.83;;;5.90;87.70;;;;;;5042082;28;20205;-77
2024/01/31 07:36:33;;;;;;;62.95;34.00;;;5.90;87.70;;;;;;5044985;28;20204;-80
2024/01/31 07:39:07;;;;;;;49.22;31.92;;;5.90;87.70;;;;;;5051865;28;20235;-81
2024/01/31 07:41:36;;;;;;;46.53;29.40;;;5.90;87.60;;;;;;5048037;28;20200;-80
2024/01/31 07:44:04;;;;;;;52.13;34.45;;;5.80;87.60;;;;;;5060395;28;20215;-80
2024/01/31 07:46:32;;;;;;;54.38;33.60;;;5.80;87.60;;;;;;5065278;28;20211;-81
2024/01/31 07:49:00;;;;;;;56.05;30.90;;;5.80;87.60;;;;;;5047431;28;20653;-81
2024/01/31 07:51:30;;;;;;;49.65;29.50;;;5.80;87.70;;;;;;5055135;28;20211;-80
2024/01/31 07:53:58;;;;;;;86.45;42.25;;;5.80;87.70;;;;;;5043429;28;20188;-80
2024/01/31 07:56:26;;;;;;;79.00;40.85;;;5.80;87.70;;;;;;5046354;28;20560;-79
2024/01/31 07:58:54;;;;;;;66.43;39.30;;;5.80;87.70;;;;;;5068529;28;20648;-80
2024/01/31 08:01:22;;;;;;;64.13;36.10;;;5.80;87.70;;;;;;5057321;28;20212;-80
2024/01/31 08:03:50;;;;;;;78.70;40.72;;;5.80;87.80;;;;;;5048306;28;20228;-80
2024/01/31 08:06:18;;;;;;;56.08;34.83;;;5.80;87.80;;;;;;5066629;28;20292;-80
2024/01/31 08:08:48;;;;;;;59.60;33.55;;;5.80;87.70;;;;;;5049344;28;20653;-80
2024/01/31 08:11:16;;;;;;;51.72;31.50;;;5.80;87.70;;;;;;5048008;28;20748;-80
2024/01/31 08:13:46;;;;;;;58.25;33.22;;;5.80;87.70;;;;;;5051249;28;20215;-80
2024/01/31 08:16:15;;;;;;;49.10;28.70;;;5.80;87.80;;;;;;5051295;28;20240;-80
2024/01/31 08:18:47;;;;;;;42.28;26.17;;;5.80;87.70;;;;;;5052588;28;20286;-80
2024/01/31 08:21:15;;;;;;;41.63;24.42;;;5.80;87.70;;;;;;5048453;28;20594;-80
2024/01/31 08:23:43;;;;;;;42.25;26.25;;;5.80;87.70;;;;;;5061567;28;20255;-80
2024/01/31 08:26:18;;;;;;;47.72;28.58;;;5.80;87.70;;;;;;5053677;28;20295;-80
2024/01/31 08:28:46;;;;;;;54.60;34.38;;;5.80;87.80;;;;;;5056168;28;20629;-81
2024/01/31 08:31:16;;;;;;;67.30;38.75;;;5.80;87.90;;;;;;5050762;28;20708;-79
2024/01/31 08:33:44;;;;;;;58.28;37.03;;;5.80;87.90;;;;;;5051494;28;20239;-80
2024/01/31 08:36:17;;;;;;;70.93;39.75;;;5.90;87.90;;;;;;5072564;28;20219;-79
2024/01/31 08:38:45;;;;;;;60.30;37.25;;;5.90;88.00;;;;;;5055328;28;20260;-80
2024/01/31 08:41:13;;;;;;;58.33;37.80;;;6.00;88.00;;;;;;5049345;28;20283;-80
2024/01/31 08:43:43;;;;;;;59.75;37.58;;;6.00;88.00;;;;;;5075951;28;20685;-80
2024/01/31 08:46:12;;;;;;;57.92;35.60;;;6.00;87.90;;;;;;5056121;28;20236;-80
2024/01/31 08:48:40;;;;;;;52.15;35.53;;;6.10;87.90;;;;;;5066445;28;20839;-80
2024/01/31 08:51:09;;;;;;;54.45;35.90;;;6.10;88.00;;;;;;5050494;28;20220;-81
2024/01/31 08:53:38;;;;;;;50.20;34.35;;;6.10;87.90;;;;;;5057749;28;20204;-81
2024/01/31 08:56:06;;;;;;;65.82;42.22;;;6.10;88.00;;;;;;5051214;28;20224;-80
2024/01/31 08:58:37;;;;;;;62.75;43.53;;;6.20;88.00;;;;;;5050444;28;20239;-81
2024/01/31 09:01:09;;;;;;;59.08;35.50;;;6.20;87.90;;;;;;5064480;28;20319;-80
2024/01/31 09:03:37;;;;;;;57.60;34.65;;;6.20;87.90;;;;;;5052436;28;20246;-81
2024/01/31 09:06:07;;;;;;;59.80;40.40;;;6.20;88.00;;;;;;5053416;28;20215;-80
2024/01/31 09:08:35;;;;;;;71.15;46.17;;;6.30;88.10;;;;;;5043901;28;20242;-81
2024/01/31 09:11:04;;;;;;;69.38;47.10;;;6.30;88.30;;;;;;5056285;28;20204;-80
2024/01/31 09:13:32;;;;;;;77.88;47.10;;;6.40;88.30;;;;;;5047160;28;20232;-80
2024/01/31 09:16:13;;;;;;;52.37;32.70;;;6.40;88.40;;;;;;5051172;28;20199;-80
2024/01/31 09:18:43;;;;;;;47.95;33.03;;;6.50;88.40;;;;;;5046215;28;20454;-80
2024/01/31 09:21:22;;;;;;;46.72;28.40;;;6.50;88.40;;;;;;5069992;28;20278;-80
2024/01/31 09:23:50;;;;;;;53.60;34.97;;;6.60;88.50;;;;;;5048924;28;20200;-81
2024/01/31 09:26:21;;;;;;;56.30;34.17;;;6.70;88.50;;;;;;5047802;28;20269;-81
2024/01/31 09:28:50;;;;;;;58.53;39.00;;;6.70;88.50;;;;;;5067222;28;20913;-80
2024/01/31 09:31:28;;;;;;;62.13;36.47;;;6.80;88.50;;;;;;5067116;28;20238;-80
2024/01/31 09:33:57;;;;;;;51.28;33.80;;;6.80;88.40;;;;;;5054590;28;20545;-81
2024/01/31 09:36:26;;;;;;;51.42;34.67;;;6.80;88.40;;;;;;5057855;28;20279;-80
2024/01/31 09:38:54;;;;;;;56.45;35.63;;;6.90;88.50;;;;;;5071999;28;20625;-80
2024/01/31 09:41:22;;;;;;;46.22;30.38;;;6.90;88.50;;;;;;5049859;28;20206;-81
2024/01/31 09:43:51;;;;;;;40.17;24.65;;;7.00;88.50;;;;;;5050627;28;20785;-80
2024/01/31 09:46:20;;;;;;;37.47;24.20;;;7.00;88.60;;;;;;5068866;28;20223;-80
2024/01/31 09:48:52;;;;;;;35.93;21.23;;;7.00;88.70;;;;;;5042774;28;20224;-80
2024/01/31 09:51:22;;;;;;;31.65;20.60;;;7.10;88.80;;;;;;5064806;28;20471;-80
2024/01/31 09:53:59;;;;;;;35.38;21.40;;;7.20;88.80;;;;;;5076319;28;20219;-80
2024/01/31 09:56:31;;;;;;;30.60;19.40;;;7.20;88.80;;;;;;5050158;28;20336;-80
2024/01/31 09:59:00;;;;;;;31.73;19.02;;;7.20;88.80;;;;;;5051556;28;20466;-81
2024/01/31 10:01:30;;;;;;;32.33;20.70;;;7.20;88.80;;;;;;5054643;28;20859;-80
2024/01/31 10:04:03;;;;;;;35.40;20.75;;;7.30;88.80;;;;;;5045747;28;21003;-79
2024/01/31 10:06:31;;;;;;;30.13;19.47;;;7.30;88.90;;;;;;5060950;28;20607;-80
2024/01/31 10:08:59;;;;;;;29.93;17.47;;;7.30;88.90;;;;;;5069863;28;20541;-81
2024/01/31 10:11:30;;;;;;;27.50;17.03;;;7.40;88.90;;;;;;5075628;28;20451;-80
2024/01/31 10:13:58;;;;;;;31.63;18.30;;;7.40;89.00;;;;;;5062124;28;20522;-80
2024/01/31 10:16:27;;;;;;;22.03;15.10;;;7.50;88.90;;;;;;5068838;28;20447;-81
2024/01/31 10:18:55;;;;;;;29.37;18.00;;;7.50;88.90;;;;;;5059260;28;20460;-79
2024/01/31 10:21:26;;;;;;;27.60;18.02;;;7.60;88.90;;;;;;5053819;28;20459;-80
2024/01/31 10:23:59;;;;;;;27.60;17.03;;;7.60;88.90;;;;;;5049529;28;20212;-77
2024/01/31 10:26:29;;;;;;;31.90;17.37;;;7.60;89.00;;;;;;5042924;28;20834;-77
2024/01/31 10:29:00;;;;;;;29.60;17.60;;;7.60;89.00;;;;;;5044979;28;21357;-77
2024/01/31 10:31:38;;;;;;;30.13;17.00;;;7.70;89.00;;;;;;5041804;28;20470;-77
2024/01/31 10:34:08;;;;;;;25.27;17.50;;;7.70;89.00;;;;;;5058072;28;20458;-77
2024/01/31 10:36:40;;;;;;;32.77;18.03;;;7.80;89.00;;;;;;5043750;28;20473;-77
2024/01/31 10:39:12;;;;;;;25.90;16.70;;;7.80;89.10;;;;;;5040568;28;20452;-78
2024/01/31 10:41:42;;;;;;;30.97;17.10;;;7.90;89.10;;;;;;5041675;28;20461;-77
2024/01/31 10:44:11;;;;;;;27.67;16.43;;;7.90;89.10;;;;;;5042178;28;20446;-77
2024/01/31 10:46:41;;;;;;;27.40;15.67;;;7.90;89.10;;;;;;5047007;28;20485;-77
2024/01/31 10:49:10;;;;;;;26.97;17.93;;;8.00;89.00;;;;;;5041666;28;20496;-78
2024/01/31 10:51:42;;;;;;;26.47;15.77;;;8.00;89.00;;;;;;5039451;28;21101;-77
2024/01/31 10:54:12;;;;;;;23.87;14.53;;;8.00;89.00;;;;;;5059601;28;20536;-77
2024/01/31 10:56:41;;;;;;;25.77;14.97;;;8.10;89.00;;;;;;5040514;28;20451;-77
2024/01/31 10:59:10;;;;;;;22.17;11.63;;;8.10;89.00;;;;;;5039791;28;20943;-77
2024/01/31 11:01:39;;;;;;;22.63;11.87;;;8.10;89.00;;;;;;5041984;28;20826;-77
2024/01/31 11:04:09;;;;;;;16.93;11.10;;;8.10;88.90;;;;;;5042800;28;20452;-77
2024/01/31 11:06:41;;;;;;;16.60;10.77;;;8.10;88.90;;;;;;5043161;28;20471;-77
2024/01/31 11:09:18;;;;;;;15.13;9.43;;;8.10;88.80;;;;;;5045810;28;20447;-78
2024/01/31 11:11:47;;;;;;;21.70;10.40;;;8.20;88.70;;;;;;5039068;28;20473;-77
2024/01/31 11:14:15;;;;;;;16.00;9.30;;;8.20;88.70;;;;;;5044654;28;20471;-77
2024/01/31 11:16:44;;;;;;;20.33;9.50;;;8.20;88.60;;;;;;5064758;28;20473;-77
2024/01/31 11:19:19;;;;;;;14.60;9.10;;;8.20;88.60;;;;;;5057821;28;20789;-76
2024/01/31 11:21:48;;;;;;;21.10;9.93;;;8.20;88.50;;;;;;5044806;28;20513;-78
2024/01/31 11:24:17;;;;;;;18.10;9.47;;;8.20;88.40;;;;;;5058772;28;20454;-77
2024/01/31 11:26:47;;;;;;;16.13;10.00;;;8.20;88.30;;;;;;5044983;28;20522;-78
2024/01/31 11:29:15;;;;;;;15.70;9.87;;;8.30;88.70;;;;;;5033337;28;20466;-77
2024/01/31 11:31:44;;;;;;;11.80;8.60;;;8.50;89.40;;;;;;5045111;28;21256;-77
2024/01/31 11:34:14;;;;;;;14.27;8.40;;;8.70;89.30;;;;;;5058858;28;20466;-77
2024/01/31 11:36:42;;;;;;;11.50;7.70;;;8.90;88.90;;;;;;5040459;28;20502;-77
2024/01/31 11:39:11;;;;;;;18.10;9.97;;;9.00;88.50;;;;;;5060730;28;20450;-78
2024/01/31 11:41:40;;;;;;;18.33;8.83;;;9.10;88.10;;;;;;5043380;28;20484;-77
2024/01/31 11:44:08;;;;;;;12.17;8.93;;;9.10;87.90;;;;;;5047399;28;20446;-77
2024/01/31 11:46:37;;;;;;;15.63;9.67;;;9.20;87.70;;;;;;5044095;28;20479;-77
2024/01/31 11:49:05;;;;;;;14.83;9.63;;;9.20;87.60;;;;;;5062639;28;20462;-77
2024/01/31 11:51:34;;;;;;;19.60;9.97;;;9.20;87.40;;;;;;5044956;28;20558;-77
2024/01/31 11:54:02;;;;;;;18.00;9.93;;;9.20;87.30;;;;;;5059159;28;20470;-77
2024/01/31 11:56:38;;;;;;;70.60;41.10;;;9.30;87.20;;;;;;5048672;28;20447;-77
2024/01/31 11:59:07;;;;;;;57.47;33.47;;;9.30;87.10;;;;;;5044465;28;20949;-77
2024/01/31 12:01:35;;;;;;;31.73;20.20;;;9.30;86.90;;;;;;5047132;28;20566;-77
2024/01/31 12:04:04;;;;;;;23.80;14.87;;;9.30;86.80;;;;;;5043170;28;20450;-77
2024/01/31 12:06:32;;;;;;;16.87;10.87;;;9.40;86.70;;;;;;5044943;28;20485;-78
2024/01/31 12:09:04;;;;;;;16.50;10.40;;;9.30;86.50;;;;;;5044576;28;20541;-76
2024/01/31 12:11:33;;;;;;;16.33;10.10;;;9.40;86.50;;;;;;5043458;28;20525;-77
2024/01/31 12:14:02;;;;;;;13.70;8.13;;;9.30;86.30;;;;;;5049117;28;21901;-77
2024/01/31 12:16:39;;;;;;;15.20;8.70;;;9.30;86.30;;;;;;5044706;28;20460;-78
2024/01/31 12:19:10;;;;;;;16.93;9.90;;;9.30;86.30;;;;;;5061946;28;20453;-77
2024/01/31 12:21:42;;;;;;;13.30;9.20;;;9.40;86.20;;;;;;5053075;28;20458;-77
2024/01/31 12:24:11;;;;;;;15.43;9.43;;;9.40;86.10;;;;;;5067926;28;20556;-77
2024/01/31 12:26:39;;;;;;;22.80;9.30;;;9.40;86.10;;;;;;5047087;28;20502;-77
2024/01/31 12:29:09;;;;;;;19.73;9.07;;;9.40;86.00;;;;;;5050340;28;20536;-77
2024/01/31 12:31:37;;;;;;;13.33;9.43;;;9.40;85.90;;;;;;5045447;28;20474;-77
2024/01/31 12:34:05;;;;;;;15.13;9.63;;;9.40;85.80;;;;;;5046987;28;20473;-75
2024/01/31 12:36:34;;;;;;;16.20;10.20;;;9.40;85.80;;;;;;5047471;28;20462;-78
2024/01/31 12:39:02;;;;;;;14.77;9.03;;;9.40;85.70;;;;;;5047000;28;20454;-77
2024/01/31 12:41:31;;;;;;;15.80;10.07;;;9.40;85.60;;;;;;5047224;28;20489;-78
2024/01/31 12:44:00;;;;;;;12.20;8.70;;;9.40;85.40;;;;;;5049445;28;20793;-75